sensor_id;sensor_type;location;lat;lon;timestamp;temperature;humidity
72865;DHT22;61000;48.120;11.548;2023-05-21T00:00:11;15.60;99.90
72865;DHT22;61000;48.120;11.548;2023-05-21T00:02:38;15.50;99.90
72865;DHT22;61000;48.120;11.548;2023-05-21T00:05:06;15.50;99.90
72865;DHT22;61000;48.120;11.548;2023-05-21T00:07:36;15.40;99.90
72865;DHT22;61000;48.120;11.548;2023-05-21T00:10:05;15.50;99.90
72865;DHT22;61000;48.120;11.548;2023-05-21T00:12:32;15.40;99.90
72865;DHT22;61000;48.120;11.548;2023-05-21T00:15:00;15.40;99.90
72865;DHT22;61000;48.120;11.548;2023-05-21T00:17:27;15.50;99.90
72865;DHT22;61000;48.120;11.548;2023-05-21T00:19:54;15.30;99.90
72865;DHT22;61000;48.120;11.548;2023-05-21T00:22:22;15.30;99.90
72865;DHT22;61000;48.120;11.548;2023-05-21T00:24:49;15.40;99.90
72865;DHT22;61000;48.120;11.548;2023-05-21T00:27:17;15.30;99.90
72865;DHT22;61000;48.120;11.548;2023-05-21T00:29:44;15.20;99.90
72865;DHT22;61000;48.120;11.548;2023-05-21T00:32:11;15.20;99.90
72865;DHT22;61000;48.120;11.548;2023-05-21T00:34:38;15.20;99.90
72865;DHT22;61000;48.120;11.548;2023-05-21T00:37:05;15.20;99.90
72865;DHT22;61000;48.120;11.548;2023-05-21T00:39:34;15.20;99.90
72865;DHT22;61000;48.120;11.548;2023-05-21T00:42:01;15.10;99.90
72865;DHT22;61000;48.120;11.548;2023-05-21T00:44:29;15.10;99.90
72865;DHT22;61000;48.120;11.548;2023-05-21T00:46:59;15.10;99.90
72865;DHT22;61000;48.120;11.548;2023-05-21T00:49:27;15.10;99.90
72865;DHT22;61000;48.120;11.548;2023-05-21T00:51:54;15.00;99.90
72865;DHT22;61000;48.120;11.548;2023-05-21T00:54:22;15.10;99.90
72865;DHT22;61000;48.120;11.548;2023-05-21T00:56:50;15.00;99.90
72865;DHT22;61000;48.120;11.548;2023-05-21T00:59:17;14.90;99.90
72865;DHT22;61000;48.120;11.548;2023-05-21T01:01:46;14.90;99.90
72865;DHT22;61000;48.120;11.548;2023-05-21T01:04:18;15.00;99.90
72865;DHT22;61000;48.120;11.548;2023-05-21T01:06:46;14.90;99.90
72865;DHT22;61000;48.120;11.548;2023-05-21T01:09:13;14.90;99.90
72865;DHT22;61000;48.120;11.548;2023-05-21T01:11:41;15.10;99.90
72865;DHT22;61000;48.120;11.548;2023-05-21T01:14:10;14.90;99.90
72865;DHT22;61000;48.120;11.548;2023-05-21T01:16:38;14.90;99.90
72865;DHT22;61000;48.120;11.548;2023-05-21T01:19:09;14.90;99.90
72865;DHT22;61000;48.120;11.548;2023-05-21T01:21:45;14.80;99.90
72865;DHT22;61000;48.120;11.548;2023-05-21T01:24:14;14.80;99.90
72865;DHT22;61000;48.120;11.548;2023-05-21T01:26:41;14.80;99.90
72865;DHT22;61000;48.120;11.548;2023-05-21T01:29:11;14.80;99.90
72865;DHT22;61000;48.120;11.548;2023-05-21T01:31:47;14.70;99.90
72865;DHT22;61000;48.120;11.548;2023-05-21T01:34:23;14.70;99.90
72865;DHT22;61000;48.120;11.548;2023-05-21T01:36:58;14.60;99.90
72865;DHT22;61000;48.120;11.548;2023-05-21T01:39:31;14.60;99.90
72865;DHT22;61000;48.120;11.548;2023-05-21T01:41:59;14.50;99.90
72865;DHT22;61000;48.120;11.548;2023-05-21T01:44:29;14.50;99.90
72865;DHT22;61000;48.120;11.548;2023-05-21T01:46:58;14.50;99.90
72865;DHT22;61000;48.120;11.548;2023-05-21T01:49:25;14.50;99.90
72865;DHT22;61000;48.120;11.548;2023-05-21T01:51:53;14.50;99.90
72865;DHT22;61000;48.120;11.548;2023-05-21T01:54:20;14.40;99.90
72865;DHT22;61000;48.120;11.548;2023-05-21T01:56:50;14.50;99.90
72865;DHT22;61000;48.120;11.548;2023-05-21T01:59:19;14.40;99.90
72865;DHT22;61000;48.120;11.548;2023-05-21T02:01:46;14.40;99.90
72865;DHT22;61000;48.120;11.548;2023-05-21T02:04:13;14.30;99.90
72865;DHT22;61000;48.120;11.548;2023-05-21T02:06:40;14.30;99.90
72865;DHT22;61000;48.120;11.548;2023-05-21T02:09:07;14.30;99.90
72865;DHT22;61000;48.120;11.548;2023-05-21T02:11:34;14.30;99.90
72865;DHT22;61000;48.120;11.548;2023-05-21T02:14:03;14.20;99.90
72865;DHT22;61000;48.120;11.548;2023-05-21T02:16:30;14.30;99.90
72865;DHT22;61000;48.120;11.548;2023-05-21T02:18:56;14.20;99.90
72865;DHT22;61000;48.120;11.548;2023-05-21T02:21:25;14.30;99.90
72865;DHT22;61000;48.120;11.548;2023-05-21T02:23:52;14.30;99.90
72865;DHT22;61000;48.120;11.548;2023-05-21T02:26:19;14.30;99.90
72865;DHT22;61000;48.120;11.548;2023-05-21T02:28:46;14.20;99.90
72865;DHT22;61000;48.120;11.548;2023-05-21T02:31:15;14.20;99.90
72865;DHT22;61000;48.120;11.548;2023-05-21T02:33:41;14.10;99.90
72865;DHT22;61000;48.120;11.548;2023-05-21T02:36:08;14.20;99.90
72865;DHT22;61000;48.120;11.548;2023-05-21T02:38:38;14.20;99.90
72865;DHT22;61000;48.120;11.548;2023-05-21T02:41:08;14.10;99.90
72865;DHT22;61000;48.120;11.548;2023-05-21T02:43:36;14.10;99.90
72865;DHT22;61000;48.120;11.548;2023-05-21T02:46:05;14.00;99.90
72865;DHT22;61000;48.120;11.548;2023-05-21T02:48:33;13.90;99.90
72865;DHT22;61000;48.120;11.548;2023-05-21T02:51:00;14.00;99.90
72865;DHT22;61000;48.120;11.548;2023-05-21T02:53:27;13.90;99.90
72865;DHT22;61000;48.120;11.548;2023-05-21T02:55:54;13.90;99.90
72865;DHT22;61000;48.120;11.548;2023-05-21T02:58:22;13.80;99.90
72865;DHT22;61000;48.120;11.548;2023-05-21T03:00:50;13.80;99.90
72865;DHT22;61000;48.120;11.548;2023-05-21T03:03:17;13.80;99.90
72865;DHT22;61000;48.120;11.548;2023-05-21T03:05:46;13.70;99.90
72865;DHT22;61000;48.120;11.548;2023-05-21T03:08:13;13.60;99.90
72865;DHT22;61000;48.120;11.548;2023-05-21T03:10:41;13.70;99.90
72865;DHT22;61000;48.120;11.548;2023-05-21T03:13:08;13.70;99.90
72865;DHT22;61000;48.120;11.548;2023-05-21T03:15:35;13.60;99.90
72865;DHT22;61000;48.120;11.548;2023-05-21T03:18:03;13.50;99.90
72865;DHT22;61000;48.120;11.548;2023-05-21T03:20:30;13.60;99.90
72865;DHT22;61000;48.120;11.548;2023-05-21T03:22:59;13.60;99.90
72865;DHT22;61000;48.120;11.548;2023-05-21T03:25:29;13.30;99.90
72865;DHT22;61000;48.120;11.548;2023-05-21T03:27:56;13.60;99.90
72865;DHT22;61000;48.120;11.548;2023-05-21T03:30:42;13.50;99.90
72865;DHT22;61000;48.120;11.548;2023-05-21T03:33:29;13.50;99.90
72865;DHT22;61000;48.120;11.548;2023-05-21T03:35:56;13.50;99.90
72865;DHT22;61000;48.120;11.548;2023-05-21T03:38:27;13.50;99.90
72865;DHT22;61000;48.120;11.548;2023-05-21T03:40:54;13.40;99.90
72865;DHT22;61000;48.120;11.548;2023-05-21T03:43:21;13.50;99.90
72865;DHT22;61000;48.120;11.548;2023-05-21T03:45:49;13.50;99.90
72865;DHT22;61000;48.120;11.548;2023-05-21T03:48:36;13.40;99.90
72865;DHT22;61000;48.120;11.548;2023-05-21T03:51:03;13.50;99.90
72865;DHT22;61000;48.120;11.548;2023-05-21T03:53:32;13.50;99.90
72865;DHT22;61000;48.120;11.548;2023-05-21T03:55:59;13.50;99.90
72865;DHT22;61000;48.120;11.548;2023-05-21T03:58:27;13.50;99.90
72865;DHT22;61000;48.120;11.548;2023-05-21T04:00:54;13.50;99.90
72865;DHT22;61000;48.120;11.548;2023-05-21T04:03:21;13.50;99.90
72865;DHT22;61000;48.120;11.548;2023-05-21T04:05:48;13.50;99.90
72865;DHT22;61000;48.120;11.548;2023-05-21T04:08:15;13.50;99.90
72865;DHT22;61000;48.120;11.548;2023-05-21T04:10:44;13.40;99.90
72865;DHT22;61000;48.120;11.548;2023-05-21T04:13:11;13.40;99.90
72865;DHT22;61000;48.120;11.548;2023-05-21T04:15:37;13.40;99.90
72865;DHT22;61000;48.120;11.548;2023-05-21T04:18:04;13.30;99.90
72865;DHT22;61000;48.120;11.548;2023-05-21T04:20:31;13.30;99.90
72865;DHT22;61000;48.120;11.548;2023-05-21T04:22:58;13.20;99.90
72865;DHT22;61000;48.120;11.548;2023-05-21T04:25:26;13.30;99.90
72865;DHT22;61000;48.120;11.548;2023-05-21T04:27:54;13.40;99.90
72865;DHT22;61000;48.120;11.548;2023-05-21T04:30:22;13.40;99.90
72865;DHT22;61000;48.120;11.548;2023-05-21T04:32:49;13.40;99.90
72865;DHT22;61000;48.120;11.548;2023-05-21T04:35:17;13.40;99.90
72865;DHT22;61000;48.120;11.548;2023-05-21T04:37:44;13.50;99.90
72865;DHT22;61000;48.120;11.548;2023-05-21T04:40:11;13.40;99.90
72865;DHT22;61000;48.120;11.548;2023-05-21T04:42:43;13.40;99.90
72865;DHT22;61000;48.120;11.548;2023-05-21T04:45:12;13.50;99.90
72865;DHT22;61000;48.120;11.548;2023-05-21T04:47:42;13.50;99.90
72865;DHT22;61000;48.120;11.548;2023-05-21T04:50:09;13.50;99.90
72865;DHT22;61000;48.120;11.548;2023-05-21T04:52:37;13.60;99.90
72865;DHT22;61000;48.120;11.548;2023-05-21T04:55:06;13.60;99.90
72865;DHT22;61000;48.120;11.548;2023-05-21T04:57:33;13.60;99.90
72865;DHT22;61000;48.120;11.548;2023-05-21T05:00:00;13.70;99.90
72865;DHT22;61000;48.120;11.548;2023-05-21T05:02:35;13.70;99.90
72865;DHT22;61000;48.120;11.548;2023-05-21T05:05:02;13.80;99.90
72865;DHT22;61000;48.120;11.548;2023-05-21T05:07:29;13.70;99.90
72865;DHT22;61000;48.120;11.548;2023-05-21T05:09:57;13.80;99.90
72865;DHT22;61000;48.120;11.548;2023-05-21T05:12:24;13.90;99.90
72865;DHT22;61000;48.120;11.548;2023-05-21T05:14:50;13.90;99.90
72865;DHT22;61000;48.120;11.548;2023-05-21T05:17:17;14.00;99.90
72865;DHT22;61000;48.120;11.548;2023-05-21T05:19:46;14.00;99.90
72865;DHT22;61000;48.120;11.548;2023-05-21T05:22:12;14.00;99.90
72865;DHT22;61000;48.120;11.548;2023-05-21T05:24:41;14.00;99.90
72865;DHT22;61000;48.120;11.548;2023-05-21T05:27:08;14.10;99.90
72865;DHT22;61000;48.120;11.548;2023-05-21T05:29:36;14.20;99.90
72865;DHT22;61000;48.120;11.548;2023-05-21T05:32:04;14.20;99.90
72865;DHT22;61000;48.120;11.548;2023-05-21T05:34:31;14.10;99.90
72865;DHT22;61000;48.120;11.548;2023-05-21T05:36:59;14.30;99.90
72865;DHT22;61000;48.120;11.548;2023-05-21T05:39:28;14.40;99.90
72865;DHT22;61000;48.120;11.548;2023-05-21T05:41:55;14.40;99.90
72865;DHT22;61000;48.120;11.548;2023-05-21T05:44:22;14.50;99.90
72865;DHT22;61000;48.120;11.548;2023-05-21T05:46:49;14.50;99.90
72865;DHT22;61000;48.120;11.548;2023-05-21T05:49:16;14.60;99.90
72865;DHT22;61000;48.120;11.548;2023-05-21T05:51:43;14.60;99.90
72865;DHT22;61000;48.120;11.548;2023-05-21T05:54:11;14.70;99.90
72865;DHT22;61000;48.120;11.548;2023-05-21T05:56:39;14.70;99.90
72865;DHT22;61000;48.120;11.548;2023-05-21T05:59:07;14.80;99.90
72865;DHT22;61000;48.120;11.548;2023-05-21T06:01:36;14.80;99.90
72865;DHT22;61000;48.120;11.548;2023-05-21T06:04:05;15.00;99.90
72865;DHT22;61000;48.120;11.548;2023-05-21T06:06:32;15.10;99.90
72865;DHT22;61000;48.120;11.548;2023-05-21T06:08:59;15.10;99.90
72865;DHT22;61000;48.120;11.548;2023-05-21T06:11:27;15.20;99.90
72865;DHT22;61000;48.120;11.548;2023-05-21T06:13:54;15.30;99.90
72865;DHT22;61000;48.120;11.548;2023-05-21T06:16:22;15.40;99.90
72865;DHT22;61000;48.120;11.548;2023-05-21T06:18:48;15.40;99.90
72865;DHT22;61000;48.120;11.548;2023-05-21T06:23:44;15.60;99.90
72865;DHT22;61000;48.120;11.548;2023-05-21T06:31:09;15.80;99.90
72865;DHT22;61000;48.120;11.548;2023-05-21T06:46:36;16.70;99.90
72865;DHT22;61000;48.120;11.548;2023-05-21T06:49:06;17.00;99.90
72865;DHT22;61000;48.120;11.548;2023-05-21T06:51:33;17.00;99.90
72865;DHT22;61000;48.120;11.548;2023-05-21T06:54:02;17.10;99.90
72865;DHT22;61000;48.120;11.548;2023-05-21T06:56:30;17.30;99.90
72865;DHT22;61000;48.120;11.548;2023-05-21T06:58:58;17.50;99.90
72865;DHT22;61000;48.120;11.548;2023-05-21T07:01:26;17.60;99.90
72865;DHT22;61000;48.120;11.548;2023-05-21T07:03:53;17.70;99.90
72865;DHT22;61000;48.120;11.548;2023-05-21T07:06:20;17.70;99.90
72865;DHT22;61000;48.120;11.548;2023-05-21T07:08:48;17.90;99.90
72865;DHT22;61000;48.120;11.548;2023-05-21T07:11:15;17.90;99.90
72865;DHT22;61000;48.120;11.548;2023-05-21T07:13:42;18.10;99.90
72865;DHT22;61000;48.120;11.548;2023-05-21T07:16:10;18.00;99.90
72865;DHT22;61000;48.120;11.548;2023-05-21T07:18:39;18.20;99.90
72865;DHT22;61000;48.120;11.548;2023-05-21T07:21:05;18.30;99.90
72865;DHT22;61000;48.120;11.548;2023-05-21T07:23:32;18.40;99.90
72865;DHT22;61000;48.120;11.548;2023-05-21T07:26:00;18.40;99.90
72865;DHT22;61000;48.120;11.548;2023-05-21T07:28:27;18.50;99.90
72865;DHT22;61000;48.120;11.548;2023-05-21T07:30:54;18.60;99.90
72865;DHT22;61000;48.120;11.548;2023-05-21T07:33:28;18.70;99.90
72865;DHT22;61000;48.120;11.548;2023-05-21T07:35:56;18.90;99.90
72865;DHT22;61000;48.120;11.548;2023-05-21T07:38:23;18.90;99.90
72865;DHT22;61000;48.120;11.548;2023-05-21T07:40:50;19.00;99.90
72865;DHT22;61000;48.120;11.548;2023-05-21T07:43:18;19.10;99.40
72865;DHT22;61000;48.120;11.548;2023-05-21T07:45:44;19.00;99.20
72865;DHT22;61000;48.120;11.548;2023-05-21T07:48:11;18.90;99.00
72865;DHT22;61000;48.120;11.548;2023-05-21T07:50:50;19.00;98.90
72865;DHT22;61000;48.120;11.548;2023-05-21T07:53:18;19.00;98.80
72865;DHT22;61000;48.120;11.548;2023-05-21T07:55:45;18.90;98.70
72865;DHT22;61000;48.120;11.548;2023-05-21T07:58:15;18.90;98.60
72865;DHT22;61000;48.120;11.548;2023-05-21T08:00:44;18.80;98.50
72865;DHT22;61000;48.120;11.548;2023-05-21T08:03:13;18.90;98.50
72865;DHT22;61000;48.120;11.548;2023-05-21T08:05:42;19.00;98.40
72865;DHT22;61000;48.120;11.548;2023-05-21T08:08:14;19.00;98.30
72865;DHT22;61000;48.120;11.548;2023-05-21T08:10:43;19.10;98.30
72865;DHT22;61000;48.120;11.548;2023-05-21T08:13:11;19.20;98.10
72865;DHT22;61000;48.120;11.548;2023-05-21T08:15:38;19.20;98.20
72865;DHT22;61000;48.120;11.548;2023-05-21T08:18:06;19.20;98.30
72865;DHT22;61000;48.120;11.548;2023-05-21T08:20:37;19.20;98.50
72865;DHT22;61000;48.120;11.548;2023-05-21T08:23:06;19.20;98.10
72865;DHT22;61000;48.120;11.548;2023-05-21T08:25:41;19.20;98.50
72865;DHT22;61000;48.120;11.548;2023-05-21T08:28:09;19.30;98.40
72865;DHT22;61000;48.120;11.548;2023-05-21T08:30:36;19.30;98.60
72865;DHT22;61000;48.120;11.548;2023-05-21T08:33:03;19.40;98.50
72865;DHT22;61000;48.120;11.548;2023-05-21T08:35:32;19.50;98.70
72865;DHT22;61000;48.120;11.548;2023-05-21T08:38:25;19.60;99.50
72865;DHT22;61000;48.120;11.548;2023-05-21T08:41:15;19.70;98.60
72865;DHT22;61000;48.120;11.548;2023-05-21T08:43:45;19.70;98.40
72865;DHT22;61000;48.120;11.548;2023-05-21T08:46:13;19.80;98.60
72865;DHT22;61000;48.120;11.548;2023-05-21T08:48:43;19.80;98.60
72865;DHT22;61000;48.120;11.548;2023-05-21T08:51:10;19.90;98.80
72865;DHT22;61000;48.120;11.548;2023-05-21T08:53:43;19.90;98.80
72865;DHT22;61000;48.120;11.548;2023-05-21T08:56:13;20.00;99.60
72865;DHT22;61000;48.120;11.548;2023-05-21T08:58:47;20.00;90.50
72865;DHT22;61000;48.120;11.548;2023-05-21T09:01:18;20.10;90.30
72865;DHT22;61000;48.120;11.548;2023-05-21T09:03:47;20.30;90.10
72865;DHT22;61000;48.120;11.548;2023-05-21T09:06:16;20.50;90.00
72865;DHT22;61000;48.120;11.548;2023-05-21T09:08:44;20.60;90.00
72865;DHT22;61000;48.120;11.548;2023-05-21T09:11:22;20.70;89.60
72865;DHT22;61000;48.120;11.548;2023-05-21T09:13:55;20.80;90.10
72865;DHT22;61000;48.120;11.548;2023-05-21T09:16:31;21.00;90.10
72865;DHT22;61000;48.120;11.548;2023-05-21T09:18:58;21.10;89.40
72865;DHT22;61000;48.120;11.548;2023-05-21T09:21:29;21.20;89.00
72865;DHT22;61000;48.120;11.548;2023-05-21T09:24:22;21.30;89.40
72865;DHT22;61000;48.120;11.548;2023-05-21T09:29:18;21.70;88.10
72865;DHT22;61000;48.120;11.548;2023-05-21T09:31:45;21.90;88.30
72865;DHT22;61000;48.120;11.548;2023-05-21T09:34:13;22.10;88.40
72865;DHT22;61000;48.120;11.548;2023-05-21T09:36:41;22.30;87.10
72865;DHT22;61000;48.120;11.548;2023-05-21T09:41:41;23.20;86.70
72865;DHT22;61000;48.120;11.548;2023-05-21T09:44:10;23.30;86.20
72865;DHT22;61000;48.120;11.548;2023-05-21T09:46:38;23.60;94.50
72865;DHT22;61000;48.120;11.548;2023-05-21T09:49:21;23.70;95.80
72865;DHT22;61000;48.120;11.548;2023-05-21T09:51:48;24.20;96.70
72865;DHT22;61000;48.120;11.548;2023-05-21T09:54:15;24.20;96.30
72865;DHT22;61000;48.120;11.548;2023-05-21T09:56:42;24.10;95.80
72865;DHT22;61000;48.120;11.548;2023-05-21T10:01:37;24.20;77.90
72865;DHT22;61000;48.120;11.548;2023-05-21T10:04:06;24.40;78.40
72865;DHT22;61000;48.120;11.548;2023-05-21T10:06:37;24.20;76.00
72865;DHT22;61000;48.120;11.548;2023-05-21T10:09:06;24.20;74.40
72865;DHT22;61000;48.120;11.548;2023-05-21T10:11:35;24.10;73.40
72865;DHT22;61000;48.120;11.548;2023-05-21T10:14:04;24.30;74.50
72865;DHT22;61000;48.120;11.548;2023-05-21T10:16:34;24.60;70.90
72865;DHT22;61000;48.120;11.548;2023-05-21T10:19:01;24.90;65.50
72865;DHT22;61000;48.120;11.548;2023-05-21T10:21:34;25.20;64.60
72865;DHT22;61000;48.120;11.548;2023-05-21T10:24:01;25.20;62.50
72865;DHT22;61000;48.120;11.548;2023-05-21T10:26:31;25.10;62.70
72865;DHT22;61000;48.120;11.548;2023-05-21T10:29:25;25.10;61.80
72865;DHT22;61000;48.120;11.548;2023-05-21T10:31:53;25.20;61.40
72865;DHT22;61000;48.120;11.548;2023-05-21T10:34:22;25.60;60.70
72865;DHT22;61000;48.120;11.548;2023-05-21T10:37:20;25.60;58.00
72865;DHT22;61000;48.120;11.548;2023-05-21T10:39:42;25.80;57.30
72865;DHT22;61000;48.120;11.548;2023-05-21T10:42:19;25.80;55.10
72865;DHT22;61000;48.120;11.548;2023-05-21T10:45:03;25.90;54.90
72865;DHT22;61000;48.120;11.548;2023-05-21T10:47:59;26.10;55.70
72865;DHT22;61000;48.120;11.548;2023-05-21T10:50:57;26.20;56.50
72865;DHT22;61000;48.120;11.548;2023-05-21T10:53:40;26.00;56.10
72865;DHT22;61000;48.120;11.548;2023-05-21T10:56:16;25.80;56.20
72865;DHT22;61000;48.120;11.548;2023-05-21T10:59:19;25.80;55.40
72865;DHT22;61000;48.120;11.548;2023-05-21T11:01:52;25.70;52.70
72865;DHT22;61000;48.120;11.548;2023-05-21T11:04:26;25.70;53.70
72865;DHT22;61000;48.120;11.548;2023-05-21T11:06:53;25.50;53.20
72865;DHT22;61000;48.120;11.548;2023-05-21T11:09:21;25.40;54.40
72865;DHT22;61000;48.120;11.548;2023-05-21T11:11:50;25.30;53.10
72865;DHT22;61000;48.120;11.548;2023-05-21T11:14:29;25.20;54.30
72865;DHT22;61000;48.120;11.548;2023-05-21T11:17:03;25.30;53.90
72865;DHT22;61000;48.120;11.548;2023-05-21T11:19:38;25.40;54.00
72865;DHT22;61000;48.120;11.548;2023-05-21T11:22:09;25.50;53.80
72865;DHT22;61000;48.120;11.548;2023-05-21T11:24:48;25.70;54.00
72865;DHT22;61000;48.120;11.548;2023-05-21T11:27:30;25.90;52.30
72865;DHT22;61000;48.120;11.548;2023-05-21T11:29:57;25.70;47.70
72865;DHT22;61000;48.120;11.548;2023-05-21T11:32:25;25.60;48.80
72865;DHT22;61000;48.120;11.548;2023-05-21T11:34:59;25.80;50.10
72865;DHT22;61000;48.120;11.548;2023-05-21T11:37:28;26.10;52.80
72865;DHT22;61000;48.120;11.548;2023-05-21T11:39:57;26.30;54.10
72865;DHT22;61000;48.120;11.548;2023-05-21T11:42:28;26.40;50.30
72865;DHT22;61000;48.120;11.548;2023-05-21T11:44:57;26.30;51.90
72865;DHT22;61000;48.120;11.548;2023-05-21T11:47:25;26.30;50.30
72865;DHT22;61000;48.120;11.548;2023-05-21T11:49:56;26.30;51.20
72865;DHT22;61000;48.120;11.548;2023-05-21T11:52:23;26.10;50.20
72865;DHT22;61000;48.120;11.548;2023-05-21T11:54:52;26.00;50.50
72865;DHT22;61000;48.120;11.548;2023-05-21T11:57:21;26.10;55.00
72865;DHT22;61000;48.120;11.548;2023-05-21T11:59:49;26.20;50.60
72865;DHT22;61000;48.120;11.548;2023-05-21T12:02:18;26.30;50.50
72865;DHT22;61000;48.120;11.548;2023-05-21T12:04:46;26.30;47.80
72865;DHT22;61000;48.120;11.548;2023-05-21T12:07:15;26.20;48.10
72865;DHT22;61000;48.120;11.548;2023-05-21T12:09:44;26.20;46.80
72865;DHT22;61000;48.120;11.548;2023-05-21T12:12:13;26.10;43.20
72865;DHT22;61000;48.120;11.548;2023-05-21T12:14:43;26.40;44.70
72865;DHT22;61000;48.120;11.548;2023-05-21T12:17:11;26.50;46.50
72865;DHT22;61000;48.120;11.548;2023-05-21T12:19:38;26.50;46.40
72865;DHT22;61000;48.120;11.548;2023-05-21T12:22:06;26.60;47.00
72865;DHT22;61000;48.120;11.548;2023-05-21T12:24:36;26.60;47.90
72865;DHT22;61000;48.120;11.548;2023-05-21T12:27:05;26.60;47.60
72865;DHT22;61000;48.120;11.548;2023-05-21T12:29:35;26.50;46.10
72865;DHT22;61000;48.120;11.548;2023-05-21T12:32:04;26.60;46.30
72865;DHT22;61000;48.120;11.548;2023-05-21T12:34:37;26.80;47.20
72865;DHT22;61000;48.120;11.548;2023-05-21T12:37:05;26.70;47.30
72865;DHT22;61000;48.120;11.548;2023-05-21T12:39:32;26.80;49.00
72865;DHT22;61000;48.120;11.548;2023-05-21T12:42:01;26.90;47.90
72865;DHT22;61000;48.120;11.548;2023-05-21T12:44:31;27.00;48.80
72865;DHT22;61000;48.120;11.548;2023-05-21T12:46:58;26.90;44.60
72865;DHT22;61000;48.120;11.548;2023-05-21T12:49:35;26.90;44.30
72865;DHT22;61000;48.120;11.548;2023-05-21T12:52:04;27.30;44.70
72865;DHT22;61000;48.120;11.548;2023-05-21T12:54:34;27.20;43.80
72865;DHT22;61000;48.120;11.548;2023-05-21T12:57:10;27.10;43.60
72865;DHT22;61000;48.120;11.548;2023-05-21T12:59:49;27.20;44.60
72865;DHT22;61000;48.120;11.548;2023-05-21T13:02:20;27.20;41.80
72865;DHT22;61000;48.120;11.548;2023-05-21T13:04:47;27.40;43.40
72865;DHT22;61000;48.120;11.548;2023-05-21T13:07:15;27.50;42.70
72865;DHT22;61000;48.120;11.548;2023-05-21T13:09:42;27.60;42.60
72865;DHT22;61000;48.120;11.548;2023-05-21T13:12:10;27.60;41.60
72865;DHT22;61000;48.120;11.548;2023-05-21T13:14:37;27.80;42.30
72865;DHT22;61000;48.120;11.548;2023-05-21T13:17:04;27.80;41.50
72865;DHT22;61000;48.120;11.548;2023-05-21T13:19:31;27.70;41.70
72865;DHT22;61000;48.120;11.548;2023-05-21T13:21:58;27.70;41.50
72865;DHT22;61000;48.120;11.548;2023-05-21T13:24:26;27.80;42.40
72865;DHT22;61000;48.120;11.548;2023-05-21T13:26:52;27.70;41.40
72865;DHT22;61000;48.120;11.548;2023-05-21T13:29:21;27.90;43.90
72865;DHT22;61000;48.120;11.548;2023-05-21T13:31:48;27.70;42.40
72865;DHT22;61000;48.120;11.548;2023-05-21T13:34:15;27.30;42.40
72865;DHT22;61000;48.120;11.548;2023-05-21T13:36:41;27.40;42.70
72865;DHT22;61000;48.120;11.548;2023-05-21T13:39:08;27.50;42.80
72865;DHT22;61000;48.120;11.548;2023-05-21T13:41:35;27.90;43.90
72865;DHT22;61000;48.120;11.548;2023-05-21T13:44:02;28.10;42.90
72865;DHT22;61000;48.120;11.548;2023-05-21T13:46:32;27.80;42.10
72865;DHT22;61000;48.120;11.548;2023-05-21T13:49:04;27.50;42.50
72865;DHT22;61000;48.120;11.548;2023-05-21T13:51:31;27.20;42.90
72865;DHT22;61000;48.120;11.548;2023-05-21T13:53:58;27.10;43.20
72865;DHT22;61000;48.120;11.548;2023-05-21T13:56:25;26.80;43.60
72865;DHT22;61000;48.120;11.548;2023-05-21T13:58:52;26.50;44.30
72865;DHT22;61000;48.120;11.548;2023-05-21T14:01:18;26.60;44.60
72865;DHT22;61000;48.120;11.548;2023-05-21T14:03:47;26.70;44.30
72865;DHT22;61000;48.120;11.548;2023-05-21T14:06:13;26.80;44.50
72865;DHT22;61000;48.120;11.548;2023-05-21T14:08:40;26.60;44.50
72865;DHT22;61000;48.120;11.548;2023-05-21T14:11:07;26.50;44.50
72865;DHT22;61000;48.120;11.548;2023-05-21T14:13:34;26.40;44.60
72865;DHT22;61000;48.120;11.548;2023-05-21T14:16:01;26.50;44.60
72865;DHT22;61000;48.120;11.548;2023-05-21T14:18:28;26.60;45.20
72865;DHT22;61000;48.120;11.548;2023-05-21T14:20:56;26.70;45.60
72865;DHT22;61000;48.120;11.548;2023-05-21T14:23:23;26.80;46.10
72865;DHT22;61000;48.120;11.548;2023-05-21T14:25:50;27.20;47.00
72865;DHT22;61000;48.120;11.548;2023-05-21T14:28:17;26.80;45.60
72865;DHT22;61000;48.120;11.548;2023-05-21T14:30:44;26.60;46.90
72865;DHT22;61000;48.120;11.548;2023-05-21T14:33:10;26.40;48.00
72865;DHT22;61000;48.120;11.548;2023-05-21T14:35:37;26.40;48.20
72865;DHT22;61000;48.120;11.548;2023-05-21T14:38:07;26.20;48.20
72865;DHT22;61000;48.120;11.548;2023-05-21T14:40:34;26.10;48.40
72865;DHT22;61000;48.120;11.548;2023-05-21T14:43:01;26.30;48.00
72865;DHT22;61000;48.120;11.548;2023-05-21T14:45:28;26.30;47.70
72865;DHT22;61000;48.120;11.548;2023-05-21T14:47:57;26.30;47.40
72865;DHT22;61000;48.120;11.548;2023-05-21T14:50:24;26.30;46.50
72865;DHT22;61000;48.120;11.548;2023-05-21T14:52:51;26.30;45.90
72865;DHT22;61000;48.120;11.548;2023-05-21T14:55:19;26.30;46.10
72865;DHT22;61000;48.120;11.548;2023-05-21T14:57:47;26.40;46.00
72865;DHT22;61000;48.120;11.548;2023-05-21T15:00:14;26.50;46.60
72865;DHT22;61000;48.120;11.548;2023-05-21T15:02:41;26.60;46.90
72865;DHT22;61000;48.120;11.548;2023-05-21T15:05:08;26.60;46.60
72865;DHT22;61000;48.120;11.548;2023-05-21T15:07:35;26.40;46.20
72865;DHT22;61000;48.120;11.548;2023-05-21T15:10:02;26.40;47.80
72865;DHT22;61000;48.120;11.548;2023-05-21T15:12:30;26.30;47.80
72865;DHT22;61000;48.120;11.548;2023-05-21T15:14:57;26.20;48.20
72865;DHT22;61000;48.120;11.548;2023-05-21T15:17:24;26.10;48.30
72865;DHT22;61000;48.120;11.548;2023-05-21T15:19:51;26.10;48.10
72865;DHT22;61000;48.120;11.548;2023-05-21T15:22:18;26.10;47.50
72865;DHT22;61000;48.120;11.548;2023-05-21T15:24:45;26.10;46.90
72865;DHT22;61000;48.120;11.548;2023-05-21T15:27:12;26.10;47.50
72865;DHT22;61000;48.120;11.548;2023-05-21T15:29:40;26.10;47.20
72865;DHT22;61000;48.120;11.548;2023-05-21T15:32:07;25.90;47.20
72865;DHT22;61000;48.120;11.548;2023-05-21T15:34:34;25.90;47.80
72865;DHT22;61000;48.120;11.548;2023-05-21T15:37:01;26.00;47.50
72865;DHT22;61000;48.120;11.548;2023-05-21T15:39:29;25.90;48.30
72865;DHT22;61000;48.120;11.548;2023-05-21T15:41:56;25.90;47.60
72865;DHT22;61000;48.120;11.548;2023-05-21T15:44:23;25.90;47.40
72865;DHT22;61000;48.120;11.548;2023-05-21T15:46:51;25.90;47.60
72865;DHT22;61000;48.120;11.548;2023-05-21T15:49:19;25.90;49.00
72865;DHT22;61000;48.120;11.548;2023-05-21T15:51:47;25.90;49.20
72865;DHT22;61000;48.120;11.548;2023-05-21T15:54:14;25.90;49.20